sensor_id;sensor_type;location;lat;lon;timestamp;P1;durP1;ratioP1;P2;durP2;ratioP2
21046;SDS011;10682;50.874;3.656;2023-04-01T00:01:06;10.00;;;2.50;;
21046;SDS011;10682;50.874;3.656;2023-04-01T00:03:33;9.57;;;2.90;;
21046;SDS011;10682;50.874;3.656;2023-04-01T00:06:01;11.07;;;3.07;;
21046;SDS011;10682;50.874;3.656;2023-04-01T00:08:29;11.93;;;2.90;;
21046;SDS011;10682;50.874;3.656;2023-04-01T00:10:56;8.20;;;3.30;;
21046;SDS011;10682;50.874;3.656;2023-04-01T00:13:24;10.27;;;3.40;;
21046;SDS011;10682;50.874;3.656;2023-04-01T00:15:53;7.60;;;2.57;;
21046;SDS011;10682;50.874;3.656;2023-04-01T00:18:22;8.23;;;2.40;;
21046;SDS011;10682;50.874;3.656;2023-04-01T00:20:50;10.70;;;2.30;;
21046;SDS011;10682;50.874;3.656;2023-04-01T00:23:19;5.20;;;2.20;;
21046;SDS011;10682;50.874;3.656;2023-04-01T00:25:46;10.53;;;2.40;;
21046;SDS011;10682;50.874;3.656;2023-04-01T00:28:18;9.57;;;2.87;;
21046;SDS011;10682;50.874;3.656;2023-04-01T00:30:46;8.30;;;3.00;;
21046;SDS011;10682;50.874;3.656;2023-04-01T00:33:13;8.70;;;3.47;;
21046;SDS011;10682;50.874;3.656;2023-04-01T00:35:41;12.20;;;3.57;;
21046;SDS011;10682;50.874;3.656;2023-04-01T00:38:08;7.87;;;3.70;;
21046;SDS011;10682;50.874;3.656;2023-04-01T00:40:38;7.77;;;4.07;;
21046;SDS011;10682;50.874;3.656;2023-04-01T00:43:15;15.60;;;4.80;;
21046;SDS011;10682;50.874;3.656;2023-04-01T00:45:49;13.47;;;5.00;;
21046;SDS011;10682;50.874;3.656;2023-04-01T00:48:17;15.07;;;5.00;;
21046;SDS011;10682;50.874;3.656;2023-04-01T00:50:52;12.23;;;6.03;;
21046;SDS011;10682;50.874;3.656;2023-04-01T00:53:30;13.30;;;6.60;;
21046;SDS011;10682;50.874;3.656;2023-04-01T00:56:10;21.57;;;6.90;;
21046;SDS011;10682;50.874;3.656;2023-04-01T00:58:42;18.90;;;6.63;;
21046;SDS011;10682;50.874;3.656;2023-04-01T01:01:18;17.47;;;7.13;;
21046;SDS011;10682;50.874;3.656;2023-04-01T01:03:51;15.33;;;7.00;;
21046;SDS011;10682;50.874;3.656;2023-04-01T01:06:31;17.43;;;7.43;;
21046;SDS011;10682;50.874;3.656;2023-04-01T01:12:21;25.47;;;7.77;;
21046;SDS011;10682;50.874;3.656;2023-04-01T01:18:09;18.83;;;7.53;;
21046;SDS011;10682;50.874;3.656;2023-04-01T01:24:03;24.83;;;6.57;;
21046;SDS011;10682;50.874;3.656;2023-04-01T01:37:43;20.73;;;6.13;;
21046;SDS011;10682;50.874;3.656;2023-04-01T01:40:12;23.73;;;5.63;;
21046;SDS011;10682;50.874;3.656;2023-04-01T01:42:43;17.83;;;5.27;;
21046;SDS011;10682;50.874;3.656;2023-04-01T01:45:16;19.67;;;5.23;;
21046;SDS011;10682;50.874;3.656;2023-04-01T01:47:48;23.60;;;4.90;;
21046;SDS011;10682;50.874;3.656;2023-04-01T01:50:16;17.87;;;4.90;;
21046;SDS011;10682;50.874;3.656;2023-04-01T01:52:44;17.73;;;4.80;;
21046;SDS011;10682;50.874;3.656;2023-04-01T01:55:28;25.60;;;5.57;;
21046;SDS011;10682;50.874;3.656;2023-04-01T01:57:58;20.63;;;5.90;;
21046;SDS011;10682;50.874;3.656;2023-04-01T02:00:35;23.13;;;6.53;;
21046;SDS011;10682;50.874;3.656;2023-04-01T02:03:03;23.10;;;6.93;;
21046;SDS011;10682;50.874;3.656;2023-04-01T02:05:31;25.47;;;7.33;;
21046;SDS011;10682;50.874;3.656;2023-04-01T02:10:35;16.33;;;6.63;;
21046;SDS011;10682;50.874;3.656;2023-04-01T02:13:16;22.60;;;7.13;;
21046;SDS011;10682;50.874;3.656;2023-04-01T02:15:51;21.40;;;7.00;;
21046;SDS011;10682;50.874;3.656;2023-04-01T02:18:23;20.90;;;7.07;;
21046;SDS011;10682;50.874;3.656;2023-04-01T02:20:50;19.03;;;7.67;;
21046;SDS011;10682;50.874;3.656;2023-04-01T02:23:18;20.43;;;7.30;;
21046;SDS011;10682;50.874;3.656;2023-04-01T02:25:46;18.73;;;7.13;;
21046;SDS011;10682;50.874;3.656;2023-04-01T02:28:14;20.97;;;6.70;;
21046;SDS011;10682;50.874;3.656;2023-04-01T02:30:46;18.23;;;6.13;;
21046;SDS011;10682;50.874;3.656;2023-04-01T02:33:15;27.60;;;6.43;;
21046;SDS011;10682;50.874;3.656;2023-04-01T02:35:45;20.80;;;6.03;;
21046;SDS011;10682;50.874;3.656;2023-04-01T02:38:12;20.63;;;6.00;;
21046;SDS011;10682;50.874;3.656;2023-04-01T02:40:43;18.70;;;5.53;;
21046;SDS011;10682;50.874;3.656;2023-04-01T02:43:18;20.93;;;5.63;;
21046;SDS011;10682;50.874;3.656;2023-04-01T02:45:46;17.37;;;5.57;;
21046;SDS011;10682;50.874;3.656;2023-04-01T02:48:13;19.33;;;5.37;;
21046;SDS011;10682;50.874;3.656;2023-04-01T02:50:40;16.93;;;5.40;;
21046;SDS011;10682;50.874;3.656;2023-04-01T02:53:07;23.80;;;5.20;;
21046;SDS011;10682;50.874;3.656;2023-04-01T02:55:34;20.17;;;5.60;;
21046;SDS011;10682;50.874;3.656;2023-04-01T02:58:01;23.03;;;5.43;;
21046;SDS011;10682;50.874;3.656;2023-04-01T03:00:28;19.77;;;6.20;;
21046;SDS011;10682;50.874;3.656;2023-04-01T03:02:56;17.77;;;5.83;;
21046;SDS011;10682;50.874;3.656;2023-04-01T03:05:23;17.47;;;5.90;;
21046;SDS011;10682;50.874;3.656;2023-04-01T03:07:50;16.63;;;5.90;;
21046;SDS011;10682;50.874;3.656;2023-04-01T03:10:17;19.53;;;5.90;;
21046;SDS011;10682;50.874;3.656;2023-04-01T03:12:45;14.53;;;5.67;;
21046;SDS011;10682;50.874;3.656;2023-04-01T03:15:12;15.13;;;5.83;;
21046;SDS011;10682;50.874;3.656;2023-04-01T03:17:43;16.00;;;6.23;;
21046;SDS011;10682;50.874;3.656;2023-04-01T03:20:10;17.77;;;6.03;;
21046;SDS011;10682;50.874;3.656;2023-04-01T03:22:38;13.87;;;6.73;;
21046;SDS011;10682;50.874;3.656;2023-04-01T03:25:08;18.70;;;6.93;;
21046;SDS011;10682;50.874;3.656;2023-04-01T03:27:37;17.27;;;6.20;;
21046;SDS011;10682;50.874;3.656;2023-04-01T03:30:04;17.03;;;5.83;;
21046;SDS011;10682;50.874;3.656;2023-04-01T03:32:33;18.97;;;6.60;;
21046;SDS011;10682;50.874;3.656;2023-04-01T03:35:00;19.53;;;6.97;;
21046;SDS011;10682;50.874;3.656;2023-04-01T03:37:27;17.40;;;6.63;;
21046;SDS011;10682;50.874;3.656;2023-04-01T03:39:54;18.33;;;6.97;;
21046;SDS011;10682;50.874;3.656;2023-04-01T03:42:21;18.70;;;7.80;;
21046;SDS011;10682;50.874;3.656;2023-04-01T03:44:48;21.77;;;7.60;;
21046;SDS011;10682;50.874;3.656;2023-04-01T03:47:15;21.50;;;7.60;;
21046;SDS011;10682;50.874;3.656;2023-04-01T03:49:41;20.30;;;7.93;;
21046;SDS011;10682;50.874;3.656;2023-04-01T03:52:09;18.63;;;8.20;;
21046;SDS011;10682;50.874;3.656;2023-04-01T03:54:37;21.33;;;7.70;;
21046;SDS011;10682;50.874;3.656;2023-04-01T03:57:05;16.47;;;7.90;;
21046;SDS011;10682;50.874;3.656;2023-04-01T03:59:32;17.30;;;7.67;;
21046;SDS011;10682;50.874;3.656;2023-04-01T04:02:00;14.07;;;7.27;;
21046;SDS011;10682;50.874;3.656;2023-04-01T04:04:27;18.10;;;7.77;;
21046;SDS011;10682;50.874;3.656;2023-04-01T04:06:54;20.13;;;8.20;;
21046;SDS011;10682;50.874;3.656;2023-04-01T04:09:21;15.20;;;7.43;;
21046;SDS011;10682;50.874;3.656;2023-04-01T04:11:49;17.63;;;8.17;;
21046;SDS011;10682;50.874;3.656;2023-04-01T04:14:17;17.03;;;7.73;;
21046;SDS011;10682;50.874;3.656;2023-04-01T04:16:44;20.20;;;8.97;;
21046;SDS011;10682;50.874;3.656;2023-04-01T04:19:11;19.60;;;9.03;;
21046;SDS011;10682;50.874;3.656;2023-04-01T04:21:39;23.83;;;9.80;;
21046;SDS011;10682;50.874;3.656;2023-04-01T04:24:07;20.27;;;10.13;;
21046;SDS011;10682;50.874;3.656;2023-04-01T04:26:35;22.40;;;10.37;;
21046;SDS011;10682;50.874;3.656;2023-04-01T04:29:02;26.20;;;11.07;;
21046;SDS011;10682;50.874;3.656;2023-04-01T04:31:29;28.10;;;11.80;;
21046;SDS011;10682;50.874;3.656;2023-04-01T04:33:58;22.43;;;10.27;;
21046;SDS011;10682;50.874;3.656;2023-04-01T04:36:27;20.50;;;10.00;;
21046;SDS011;10682;50.874;3.656;2023-04-01T04:38:54;20.60;;;9.27;;
21046;SDS011;10682;50.874;3.656;2023-04-01T04:41:21;21.40;;;8.73;;
21046;SDS011;10682;50.874;3.656;2023-04-01T04:43:52;16.70;;;8.93;;
21046;SDS011;10682;50.874;3.656;2023-04-01T04:46:22;25.53;;;9.20;;
21046;SDS011;10682;50.874;3.656;2023-04-01T04:48:49;18.70;;;8.07;;
21046;SDS011;10682;50.874;3.656;2023-04-01T04:51:18;18.60;;;8.43;;
21046;SDS011;10682;50.874;3.656;2023-04-01T04:53:46;16.37;;;8.90;;
21046;SDS011;10682;50.874;3.656;2023-04-01T04:56:20;17.77;;;8.80;;
21046;SDS011;10682;50.874;3.656;2023-04-01T04:58:48;26.53;;;10.10;;
21046;SDS011;10682;50.874;3.656;2023-04-01T05:01:16;20.03;;;9.93;;
21046;SDS011;10682;50.874;3.656;2023-04-01T05:03:44;24.77;;;10.40;;
21046;SDS011;10682;50.874;3.656;2023-04-01T05:06:13;25.40;;;9.93;;
21046;SDS011;10682;50.874;3.656;2023-04-01T05:08:43;26.37;;;10.23;;
21046;SDS011;10682;50.874;3.656;2023-04-01T05:11:16;21.67;;;9.90;;
21046;SDS011;10682;50.874;3.656;2023-04-01T05:13:45;19.83;;;9.03;;
21046;SDS011;10682;50.874;3.656;2023-04-01T05:16:13;22.10;;;9.30;;
21046;SDS011;10682;50.874;3.656;2023-04-01T05:18:44;17.50;;;9.20;;
21046;SDS011;10682;50.874;3.656;2023-04-01T05:21:11;20.83;;;8.40;;
21046;SDS011;10682;50.874;3.656;2023-04-01T05:23:41;26.20;;;10.13;;
21046;SDS011;10682;50.874;3.656;2023-04-01T05:26:11;21.30;;;8.93;;
21046;SDS011;10682;50.874;3.656;2023-04-01T05:28:40;21.97;;;9.33;;
21046;SDS011;10682;50.874;3.656;2023-04-01T05:31:07;20.93;;;9.37;;
21046;SDS011;10682;50.874;3.656;2023-04-01T05:33:35;23.33;;;9.93;;
21046;SDS011;10682;50.874;3.656;2023-04-01T05:36:06;21.67;;;9.07;;
21046;SDS011;10682;50.874;3.656;2023-04-01T05:38:34;19.50;;;9.10;;
21046;SDS011;10682;50.874;3.656;2023-04-01T05:41:02;20.40;;;9.30;;
21046;SDS011;10682;50.874;3.656;2023-04-01T05:43:30;15.70;;;8.20;;
21046;SDS011;10682;50.874;3.656;2023-04-01T05:45:57;19.40;;;8.90;;
21046;SDS011;10682;50.874;3.656;2023-04-01T05:48:24;22.70;;;8.57;;
21046;SDS011;10682;50.874;3.656;2023-04-01T05:50:51;17.20;;;8.03;;
21046;SDS011;10682;50.874;3.656;2023-04-01T05:53:18;15.53;;;8.23;;
21046;SDS011;10682;50.874;3.656;2023-04-01T05:55:45;17.83;;;7.90;;
21046;SDS011;10682;50.874;3.656;2023-04-01T05:58:12;18.50;;;7.90;;
21046;SDS011;10682;50.874;3.656;2023-04-01T06:00:39;19.63;;;7.53;;
21046;SDS011;10682;50.874;3.656;2023-04-01T06:03:06;17.20;;;7.10;;
21046;SDS011;10682;50.874;3.656;2023-04-01T06:05:41;17.77;;;7.77;;
21046;SDS011;10682;50.874;3.656;2023-04-01T06:08:12;15.67;;;7.00;;
21046;SDS011;10682;50.874;3.656;2023-04-01T06:13:41;19.57;;;7.83;;
21046;SDS011;10682;50.874;3.656;2023-04-01T06:19:22;16.93;;;8.80;;
21046;SDS011;10682;50.874;3.656;2023-04-01T06:22:29;20.47;;;9.70;;
21046;SDS011;10682;50.874;3.656;2023-04-01T06:28:44;18.37;;;8.43;;
21046;SDS011;10682;50.874;3.656;2023-04-01T06:34:47;13.93;;;6.83;;
21046;SDS011;10682;50.874;3.656;2023-04-01T06:37:57;18.10;;;7.07;;
21046;SDS011;10682;50.874;3.656;2023-04-01T06:44:22;13.77;;;6.10;;
21046;SDS011;10682;50.874;3.656;2023-04-01T06:47:11;10.60;;;5.50;;
21046;SDS011;10682;50.874;3.656;2023-04-01T06:55:51;9.57;;;5.73;;
21046;SDS011;10682;50.874;3.656;2023-04-01T06:58:34;8.13;;;4.60;;
21046;SDS011;10682;50.874;3.656;2023-04-01T07:01:10;6.20;;;3.87;;
21046;SDS011;10682;50.874;3.656;2023-04-01T07:03:55;8.17;;;3.90;;
21046;SDS011;10682;50.874;3.656;2023-04-01T07:06:29;5.10;;;3.50;;
21046;SDS011;10682;50.874;3.656;2023-04-01T07:09:04;5.57;;;3.60;;
21046;SDS011;10682;50.874;3.656;2023-04-01T07:11:37;6.10;;;3.30;;
21046;SDS011;10682;50.874;3.656;2023-04-01T07:14:12;5.73;;;2.77;;
21046;SDS011;10682;50.874;3.656;2023-04-01T07:19:34;6.20;;;2.70;;
21046;SDS011;10682;50.874;3.656;2023-04-01T07:25:01;4.67;;;2.63;;
21046;SDS011;10682;50.874;3.656;2023-04-01T07:27:38;4.83;;;2.50;;
21046;SDS011;10682;50.874;3.656;2023-04-01T07:30:15;4.27;;;2.37;;
21046;SDS011;10682;50.874;3.656;2023-04-01T07:32:50;3.70;;;2.20;;
21046;SDS011;10682;50.874;3.656;2023-04-01T07:35:49;3.93;;;2.90;;
21046;SDS011;10682;50.874;3.656;2023-04-01T07:38:47;7.27;;;3.27;;
21046;SDS011;10682;50.874;3.656;2023-04-01T07:44:37;8.20;;;2.80;;
21046;SDS011;10682;50.874;3.656;2023-04-01T07:53:16;4.50;;;2.70;;
21046;SDS011;10682;50.874;3.656;2023-04-01T08:06:41;4.03;;;2.60;;
21046;SDS011;10682;50.874;3.656;2023-04-01T08:10:05;5.33;;;3.00;;
21046;SDS011;10682;50.874;3.656;2023-04-01T08:16:15;5.53;;;2.60;;
21046;SDS011;10682;50.874;3.656;2023-04-01T08:21:52;3.83;;;2.50;;
21046;SDS011;10682;50.874;3.656;2023-04-01T08:24:33;4.93;;;2.80;;
21046;SDS011;10682;50.874;3.656;2023-04-01T08:27:24;5.87;;;3.20;;
21046;SDS011;10682;50.874;3.656;2023-04-01T08:30:39;4.80;;;2.90;;
21046;SDS011;10682;50.874;3.656;2023-04-01T08:35:54;7.13;;;2.97;;
21046;SDS011;10682;50.874;3.656;2023-04-01T08:38:51;6.20;;;2.90;;
21046;SDS011;10682;50.874;3.656;2023-04-01T08:53:38;4.40;;;2.90;;
21046;SDS011;10682;50.874;3.656;2023-04-01T08:59:21;7.40;;;2.97;;
21046;SDS011;10682;50.874;3.656;2023-04-01T09:02:19;6.80;;;2.57;;
21046;SDS011;10682;50.874;3.656;2023-04-01T09:27:45;3.53;;;2.13;;
21046;SDS011;10682;50.874;3.656;2023-04-01T09:31:01;5.33;;;2.70;;
21046;SDS011;10682;50.874;3.656;2023-04-01T09:40:18;7.23;;;3.30;;
21046;SDS011;10682;50.874;3.656;2023-04-01T09:52:23;3.93;;;2.57;;
21046;SDS011;10682;50.874;3.656;2023-04-01T10:01:18;6.67;;;1.80;;
21046;SDS011;10682;50.874;3.656;2023-04-01T10:46:31;1.80;;;1.40;;
21046;SDS011;10682;50.874;3.656;2023-04-01T11:03:46;3.93;;;2.10;;
21046;SDS011;10682;50.874;3.656;2023-04-01T11:06:37;7.03;;;2.37;;
21046;SDS011;10682;50.874;3.656;2023-04-01T11:33:31;4.07;;;2.13;;
21046;SDS011;10682;50.874;3.656;2023-04-01T11:45:53;12.40;;;2.97;;
21046;SDS011;10682;50.874;3.656;2023-04-01T12:11:39;9.40;;;2.73;;
21046;SDS011;10682;50.874;3.656;2023-04-01T12:22:42;5.87;;;2.63;;
21046;SDS011;10682;50.874;3.656;2023-04-01T12:40:28;5.37;;;2.70;;
21046;SDS011;10682;50.874;3.656;2023-04-01T12:46:32;8.20;;;2.20;;
21046;SDS011;10682;50.874;3.656;2023-04-01T12:55:41;2.57;;;1.57;;
21046;SDS011;10682;50.874;3.656;2023-04-01T13:19:37;1.30;;;0.90;;
21046;SDS011;10682;50.874;3.656;2023-04-01T13:28:20;1.50;;;1.03;;
21046;SDS011;10682;50.874;3.656;2023-04-01T13:42:21;2.00;;;1.30;;
21046;SDS011;10682;50.874;3.656;2023-04-01T14:02:21;4.43;;;2.40;;
21046;SDS011;10682;50.874;3.656;2023-04-01T14:05:14;5.67;;;1.80;;
21046;SDS011;10682;50.874;3.656;2023-04-01T14:14:18;1.13;;;0.83;;
21046;SDS011;10682;50.874;3.656;2023-04-01T14:20:29;3.53;;;1.73;;
21046;SDS011;10682;50.874;3.656;2023-04-01T14:23:13;2.67;;;1.43;;
21046;SDS011;10682;50.874;3.656;2023-04-01T14:38:42;5.70;;;1.53;;
21046;SDS011;10682;50.874;3.656;2023-04-01T14:51:19;2.77;;;1.60;;
21046;SDS011;10682;50.874;3.656;2023-04-01T14:54:02;3.07;;;1.57;;
21046;SDS011;10682;50.874;3.656;2023-04-01T14:57:09;6.60;;;2.53;;
21046;SDS011;10682;50.874;3.656;2023-04-01T14:59:51;3.47;;;2.53;;
21046;SDS011;10682;50.874;3.656;2023-04-01T15:23:52;8.37;;;1.80;;
21046;SDS011;10682;50.874;3.656;2023-04-01T15:40:38;2.20;;;1.60;;
21046;SDS011;10682;50.874;3.656;2023-04-01T15:43:57;3.73;;;1.97;;
21046;SDS011;10682;50.874;3.656;2023-04-01T15:46:47;3.93;;;1.70;;
21046;SDS011;10682;50.874;3.656;2023-04-01T15:49:41;7.90;;;2.43;;
21046;SDS011;10682;50.874;3.656;2023-04-01T16:00:21;4.70;;;1.83;;
21046;SDS011;10682;50.874;3.656;2023-04-01T16:12:35;6.80;;;3.70;;
21046;SDS011;10682;50.874;3.656;2023-04-01T16:23:51;9.90;;;2.57;;
21046;SDS011;10682;50.874;3.656;2023-04-01T16:41:17;8.50;;;2.17;;
21046;SDS011;10682;50.874;3.656;2023-04-01T16:46:48;5.50;;;1.70;;
21046;SDS011;10682;50.874;3.656;2023-04-01T16:50:05;4.53;;;1.53;;
21046;SDS011;10682;50.874;3.656;2023-04-01T16:52:35;6.70;;;1.80;;
21046;SDS011;10682;50.874;3.656;2023-04-01T16:55:21;6.73;;;1.70;;
21046;SDS011;10682;50.874;3.656;2023-04-01T16:58:02;5.07;;;1.60;;
21046;SDS011;10682;50.874;3.656;2023-04-01T17:05:37;4.33;;;1.80;;
21046;SDS011;10682;50.874;3.656;2023-04-01T17:43:28;8.93;;;2.70;;
21046;SDS011;10682;50.874;3.656;2023-04-01T17:49:30;7.23;;;3.00;;
21046;SDS011;10682;50.874;3.656;2023-04-01T17:52:20;7.80;;;3.00;;
21046;SDS011;10682;50.874;3.656;2023-04-01T18:06:21;7.80;;;3.30;;
21046;SDS011;10682;50.874;3.656;2023-04-01T18:18:02;8.30;;;3.10;;
21046;SDS011;10682;50.874;3.656;2023-04-01T18:23:56;7.63;;;3.10;;
21046;SDS011;10682;50.874;3.656;2023-04-01T18:26:31;5.30;;;3.00;;
21046;SDS011;10682;50.874;3.656;2023-04-01T18:35:00;11.77;;;3.80;;
21046;SDS011;10682;50.874;3.656;2023-04-01T18:38:11;11.37;;;4.40;;
21046;SDS011;10682;50.874;3.656;2023-04-01T18:40:48;7.20;;;3.60;;
21046;SDS011;10682;50.874;3.656;2023-04-01T18:51:46;15.67;;;5.17;;
21046;SDS011;10682;50.874;3.656;2023-04-01T18:54:31;17.13;;;4.60;;
21046;SDS011;10682;50.874;3.656;2023-04-01T18:57:15;12.63;;;5.23;;
21046;SDS011;10682;50.874;3.656;2023-04-01T19:03:02;15.87;;;5.73;;
21046;SDS011;10682;50.874;3.656;2023-04-01T19:05:42;13.13;;;6.20;;
21046;SDS011;10682;50.874;3.656;2023-04-01T19:11:09;15.30;;;6.40;;
21046;SDS011;10682;50.874;3.656;2023-04-01T19:13:53;15.57;;;6.63;;
21046;SDS011;10682;50.874;3.656;2023-04-01T19:27:53;19.43;;;8.40;;
21046;SDS011;10682;50.874;3.656;2023-04-01T19:30:58;20.53;;;9.00;;
21046;SDS011;10682;50.874;3.656;2023-04-01T19:36:45;21.90;;;9.47;;
21046;SDS011;10682;50.874;3.656;2023-04-01T19:51:11;25.53;;;9.77;;
21046;SDS011;10682;50.874;3.656;2023-04-01T19:56:19;33.30;;;9.83;;
21046;SDS011;10682;50.874;3.656;2023-04-01T19:58:56;28.20;;;9.67;;
21046;SDS011;10682;50.874;3.656;2023-04-01T20:01:47;29.17;;;9.07;;
21046;SDS011;10682;50.874;3.656;2023-04-01T20:16:06;26.07;;;9.70;;
21046;SDS011;10682;50.874;3.656;2023-04-01T20:21:23;33.27;;;10.70;;
21046;SDS011;10682;50.874;3.656;2023-04-01T20:24:21;35.67;;;9.63;;
21046;SDS011;10682;50.874;3.656;2023-04-01T20:27:31;38.83;;;10.53;;
21046;SDS011;10682;50.874;3.656;2023-04-01T20:33:10;34.00;;;10.07;;
21046;SDS011;10682;50.874;3.656;2023-04-01T20:36:22;31.10;;;9.60;;
21046;SDS011;10682;50.874;3.656;2023-04-01T20:39:14;33.30;;;9.70;;
21046;SDS011;10682;50.874;3.656;2023-04-01T20:45:28;27.50;;;10.13;;
21046;SDS011;10682;50.874;3.656;2023-04-01T20:48:24;34.23;;;10.63;;
21046;SDS011;10682;50.874;3.656;2023-04-01T20:51:22;29.70;;;10.00;;
21046;SDS011;10682;50.874;3.656;2023-04-01T20:59:55;21.60;;;9.97;;
21046;SDS011;10682;50.874;3.656;2023-04-01T21:11:20;35.83;;;11.13;;
21046;SDS011;10682;50.874;3.656;2023-04-01T21:23:15;30.23;;;11.77;;
21046;SDS011;10682;50.874;3.656;2023-04-01T21:35:27;45.60;;;13.90;;
21046;SDS011;10682;50.874;3.656;2023-04-01T21:38:20;39.03;;;13.70;;
21046;SDS011;10682;50.874;3.656;2023-04-01T22:07:08;41.20;;;15.80;;
21046;SDS011;10682;50.874;3.656;2023-04-01T22:09:51;48.77;;;16.50;;
21046;SDS011;10682;50.874;3.656;2023-04-01T22:21:17;60.80;;;18.53;;
21046;SDS011;10682;50.874;3.656;2023-04-01T22:24:03;54.53;;;18.70;;
21046;SDS011;10682;50.874;3.656;2023-04-01T22:27:03;57.50;;;17.07;;
21046;SDS011;10682;50.874;3.656;2023-04-01T22:32:44;52.13;;;17.73;;
21046;SDS011;10682;50.874;3.656;2023-04-01T22:44:32;52.70;;;18.00;;
21046;SDS011;10682;50.874;3.656;2023-04-01T22:47:25;61.30;;;18.40;;
21046;SDS011;10682;50.874;3.656;2023-04-01T22:56:41;62.97;;;19.27;;
21046;SDS011;10682;50.874;3.656;2023-04-01T22:59:24;59.57;;;19.63;;
21046;SDS011;10682;50.874;3.656;2023-04-01T23:02:36;65.83;;;19.30;;
21046;SDS011;10682;50.874;3.656;2023-04-01T23:05:09;69.80;;;19.90;;
21046;SDS011;10682;50.874;3.656;2023-04-01T23:11:00;64.83;;;20.13;;
21046;SDS011;10682;50.874;3.656;2023-04-01T23:13:35;48.23;;;18.53;;
21046;SDS011;10682;50.874;3.656;2023-04-01T23:16:37;47.83;;;18.37;;
21046;SDS011;10682;50.874;3.656;2023-04-01T23:19:21;56.17;;;18.97;;
21046;SDS011;10682;50.874;3.656;2023-04-01T23:33:10;49.63;;;17.13;;
21046;SDS011;10682;50.874;3.656;2023-04-01T23:36:17;49.70;;;18.03;;
21046;SDS011;10682;50.874;3.656;2023-04-01T23:38:40;40.47;;;16.63;;
21046;SDS011;10682;50.874;3.656;2023-04-01T23:41:09;45.87;;;17.30;;
21046;SDS011;10682;50.874;3.656;2023-04-01T23:44:31;39.63;;;16.30;;
21046;SDS011;10682;50.874;3.656;2023-04-01T23:46:52;44.80;;;16.50;;
21046;SDS011;10682;50.874;3.656;2023-04-01T23:49:21;37.97;;;16.40;;
21046;SDS011;10682;50.874;3.656;2023-04-01T23:52:03;42.47;;;16.57;;
21046;SDS011;10682;50.874;3.656;2023-04-01T23:54:43;45.23;;;16.63;;
21046;SDS011;10682;50.874;3.656;2023-04-01T23:57:18;43.30;;;18.17;;
